Time;durP1;ratioP1;P1;durP2;ratioP2;P2;SDS_P1;SDS_P2;PMS_P1;PMS_P2;Temp;Humidity;BMP_temperature;BMP_pressure;BME280_temperature;BME280_humidity;BME280_pressure;Samples;Min_cycle;Max_cycle;Signal;HPM_P1;HPM_P2
2020/12/03 00:01:47;;;;;;;2.00;1.20;;;9.00;76.60;;;;;;5093507;28;20504;-46
2020/12/03 00:04:13;;;;;;;2.42;1.20;;;9.00;76.70;;;;;;5085794;28;20039;-45
2020/12/03 00:06:45;;;;;;;2.53;0.95;;;9.00;76.60;;;;;;5086930;28;20106;-44
2020/12/03 00:09:13;;;;;;;1.10;1.00;;;9.00;76.60;;;;;;5124714;28;20083;-45
2020/12/03 00:11:47;;;;;;;2.65;1.10;;;9.00;76.60;;;;;;5106288;28;20042;-45
2020/12/03 00:14:14;;;;;;;1.70;1.20;;;8.90;76.50;;;;;;5128777;27;20515;-45
2020/12/03 00:16:40;;;;;;;4.55;1.25;;;8.90;76.50;;;;;;5144979;27;20039;-45
2020/12/03 00:19:08;;;;;;;1.35;0.82;;;8.90;76.50;;;;;;5141222;27;20084;-45
2020/12/03 00:21:43;;;;;;;2.47;1.10;;;8.90;76.60;;;;;;5124489;28;20798;-45
2020/12/03 00:24:10;;;;;;;1.45;0.88;;;8.90;76.50;;;;;;5106096;28;20035;-46
2020/12/03 00:26:36;;;;;;;;;;;8.90;76.60;;;;;;5127247;27;20020;-45
2020/12/03 00:29:03;;;;;;;1.85;1.20;;;8.90;76.60;;;;;;5144832;27;19908;-45
2020/12/03 00:31:29;;;;;;;1.67;1.08;;;8.90;76.60;;;;;;5134228;27;20030;-45
2020/12/03 00:33:55;;;;;;;1.33;0.90;;;8.90;76.60;;;;;;5124477;28;20038;-45
2020/12/03 00:36:21;;;;;;;4.32;1.20;;;8.80;76.60;;;;;;5104456;27;20039;-45
2020/12/03 00:38:48;;;;;;;4.47;1.17;;;8.80;76.60;;;;;;5144731;27;20050;-46
2020/12/03 00:41:14;;;;;;;1.23;1.13;;;8.80;76.60;;;;;;5144926;27;20048;-45
2020/12/03 00:43:41;;;;;;;1.07;0.90;;;8.80;76.60;;;;;;5144184;27;20260;-45
2020/12/03 00:46:07;;;;;;;1.60;1.20;;;8.80;76.60;;;;;;5144499;27;20030;-44
2020/12/03 00:48:33;;;;;;;3.42;1.23;;;8.80;76.60;;;;;;5144605;27;20027;-45
2020/12/03 00:50:59;;;;;;;3.42;1.40;;;8.80;76.60;;;;;;5129164;27;20048;-45
2020/12/03 00:53:26;;;;;;;1.30;1.15;;;8.70;76.60;;;;;;5123700;28;20812;-45
2020/12/03 00:55:52;;;;;;;2.45;1.20;;;8.80;76.60;;;;;;5123970;28;20046;-45
2020/12/03 00:58:18;;;;;;;2.28;1.30;;;8.80;76.60;;;;;;5123731;28;20034;-44
2020/12/03 01:00:44;;;;;;;1.77;1.20;;;8.80;76.60;;;;;;5124789;27;20031;-44
2020/12/03 01:03:11;;;;;;;1.40;1.20;;;8.70;76.60;;;;;;5143984;27;20027;-44
2020/12/03 01:05:37;;;;;;;2.75;1.55;;;8.70;76.60;;;;;;5125742;27;20023;-44
2020/12/03 01:08:04;;;;;;;2.45;1.48;;;8.70;76.60;;;;;;5140383;27;20027;-46
2020/12/03 01:10:32;;;;;;;1.85;1.52;;;8.70;76.60;;;;;;5125837;27;20023;-45
2020/12/03 01:12:59;;;;;;;1.70;1.40;;;8.70;76.60;;;;;;5138348;27;20100;-45
2020/12/03 01:15:25;;;;;;;1.60;1.25;;;8.70;76.60;;;;;;5105381;28;20073;-45
2020/12/03 01:17:51;;;;;;;1.77;1.30;;;8.70;76.60;;;;;;5123128;28;20122;-44
2020/12/03 01:20:24;;;;;;;1.75;1.30;;;8.70;76.50;;;;;;5108676;28;20083;-45
2020/12/03 01:22:50;;;;;;;1.85;1.38;;;8.70;76.60;;;;;;5123270;28;20062;-44
2020/12/03 01:25:18;;;;;;;2.90;1.25;;;8.70;76.60;;;;;;5123522;28;20079;-45
2020/12/03 01:27:44;;;;;;;1.73;1.23;;;8.70;76.60;;;;;;5117485;27;20120;-44
2020/12/03 01:30:11;;;;;;;2.15;1.35;;;8.60;76.50;;;;;;5143844;27;20376;-44
2020/12/03 01:32:37;;;;;;;1.85;1.70;;;8.60;76.50;;;;;;5123510;28;20019;-45
2020/12/03 01:35:04;;;;;;;1.58;1.40;;;8.60;76.50;;;;;;5104995;28;20058;-44
2020/12/03 01:37:30;;;;;;;;;;;8.60;76.50;;;;;;5132196;28;20069;-44
2020/12/03 01:39:56;;;;;;;2.15;1.40;;;8.60;76.50;;;;;;5137380;28;20391;-45
2020/12/03 01:42:23;;;;;;;2.83;1.50;;;8.60;76.50;;;;;;5125163;28;20032;-44
2020/12/03 01:44:52;;;;;;;2.08;1.38;;;8.60;76.50;;;;;;5122601;28;20023;-46
2020/12/03 01:47:32;;;;;;;1.70;1.38;;;8.60;76.50;;;;;;5125841;28;20242;-45
2020/12/03 01:49:59;;;;;;;1.40;1.20;;;8.50;76.40;;;;;;5104194;28;20040;-44
2020/12/03 01:52:25;;;;;;;3.47;1.40;;;8.50;76.50;;;;;;5123163;28;20031;-44
2020/12/03 01:54:52;;;;;;;1.75;1.38;;;8.50;76.50;;;;;;5087793;28;20034;-44
2020/12/03 01:57:31;;;;;;;1.92;1.58;;;8.50;76.50;;;;;;5123159;28;20050;-44
2020/12/03 02:00:12;;;;;;;2.13;1.60;;;8.50;76.60;;;;;;5122996;28;20049;-44
2020/12/03 02:02:41;;;;;;;1.95;1.33;;;8.50;76.50;;;;;;5104772;28;20078;-44
2020/12/03 02:05:12;;;;;;;1.98;1.40;;;8.50;76.50;;;;;;5122788;28;20041;-44
2020/12/03 02:07:38;;;;;;;3.85;1.55;;;8.50;76.50;;;;;;5132537;28;20065;-45
2020/12/03 02:10:05;;;;;;;1.40;1.30;;;8.50;76.60;;;;;;5143617;28;20777;-44
2020/12/03 02:12:31;;;;;;;2.10;1.55;;;8.40;76.50;;;;;;5125233;28;20036;-47
2020/12/03 02:14:58;;;;;;;1.98;1.35;;;8.40;76.50;;;;;;5142863;28;20051;-45
2020/12/03 02:17:24;;;;;;;1.70;1.40;;;8.40;76.50;;;;;;5143347;28;20498;-45
2020/12/03 02:19:57;;;;;;;2.10;1.70;;;8.40;76.50;;;;;;5122145;28;20042;-44
2020/12/03 02:22:24;;;;;;;5.13;1.50;;;8.40;76.60;;;;;;5143329;28;20093;-46
2020/12/03 02:24:50;;;;;;;2.05;1.63;;;8.40;76.60;;;;;;5143349;28;20025;-45
2020/12/03 02:27:19;;;;;;;4.40;1.55;;;8.40;76.60;;;;;;5113578;28;20074;-45
2020/12/03 02:29:45;;;;;;;2.20;1.73;;;8.40;76.60;;;;;;5102855;28;20047;-45
2020/12/03 02:32:11;;;;;;;4.57;1.60;;;8.30;76.50;;;;;;5122619;28;20067;-46
2020/12/03 02:34:38;;;;;;;1.83;1.48;;;8.30;76.50;;;;;;5126540;28;20051;-45
2020/12/03 02:37:05;;;;;;;2.60;2.13;;;8.30;76.50;;;;;;5131117;27;20034;-47
2020/12/03 02:39:31;;;;;;;2.00;1.80;;;8.30;76.60;;;;;;5147135;27;20034;-45
2020/12/03 02:41:58;;;;;;;1.98;1.77;;;8.30;76.60;;;;;;5112830;28;20042;-44
2020/12/03 02:44:24;;;;;;;1.90;1.30;;;8.30;76.60;;;;;;5126184;28;20108;-45
2020/12/03 02:46:50;;;;;;;2.00;1.60;;;8.30;76.70;;;;;;5126381;28;20101;-44
2020/12/03 02:49:16;;;;;;;1.55;1.27;;;8.30;76.70;;;;;;5125647;28;20034;-45
2020/12/03 02:51:43;;;;;;;2.60;1.77;;;8.30;76.70;;;;;;5126234;28;20031;-45
2020/12/03 02:54:09;;;;;;;2.70;1.80;;;8.20;76.60;;;;;;5126081;28;20027;-44
2020/12/03 02:56:36;;;;;;;1.70;1.60;;;8.20;76.70;;;;;;5108040;28;20032;-44
2020/12/03 02:59:03;;;;;;;2.70;1.90;;;8.20;76.70;;;;;;5126141;28;20031;-45
2020/12/03 03:01:29;;;;;;;1.98;1.65;;;8.20;76.70;;;;;;5125870;28;20037;-45
2020/12/03 03:03:55;;;;;;;1.90;1.60;;;8.20;76.70;;;;;;5125934;28;20027;-45
2020/12/03 03:06:21;;;;;;;2.58;1.73;;;8.20;77.40;;;;;;5124522;27;20028;-45
2020/12/03 03:08:47;;;;;;;1.73;1.60;;;8.20;76.80;;;;;;5146641;27;20110;-44
2020/12/03 03:11:14;;;;;;;2.10;1.70;;;8.20;76.80;;;;;;5146577;27;20022;-44
2020/12/03 03:13:40;;;;;;;2.55;1.80;;;8.10;76.70;;;;;;5146158;27;20027;-45
2020/12/03 03:16:06;;;;;;;1.98;1.63;;;8.10;76.70;;;;;;5146309;27;20587;-45
2020/12/03 03:18:32;;;;;;;1.80;1.50;;;8.10;76.70;;;;;;5146491;27;20023;-45
2020/12/03 03:20:58;;;;;;;2.40;1.77;;;8.10;76.70;;;;;;5142896;27;20032;-45
2020/12/03 03:23:24;;;;;;;1.85;1.50;;;8.10;76.70;;;;;;5146552;27;20027;-46
2020/12/03 03:25:51;;;;;;;2.25;1.55;;;8.10;76.80;;;;;;5145980;27;20083;-45
2020/12/03 03:28:17;;;;;;;1.58;1.40;;;8.10;76.80;;;;;;5129364;27;20030;-45
2020/12/03 03:30:43;;;;;;;1.73;1.63;;;8.10;76.80;;;;;;5125574;28;20053;-44
2020/12/03 03:33:09;;;;;;;2.15;1.63;;;8.00;76.70;;;;;;5125563;28;20779;-44
2020/12/03 03:35:35;;;;;;;2.10;1.65;;;8.00;76.80;;;;;;5125327;28;20031;-44
2020/12/03 03:38:01;;;;;;;2.63;1.67;;;8.00;76.70;;;;;;5138109;27;20126;-45
2020/12/03 03:40:28;;;;;;;2.85;1.80;;;8.00;76.80;;;;;;5136933;27;20028;-45
2020/12/03 03:42:54;;;;;;;2.55;1.77;;;8.00;76.80;;;;;;5124506;28;20532;-45
2020/12/03 03:45:20;;;;;;;2.10;1.50;;;8.00;76.80;;;;;;5125091;28;20555;-44
2020/12/03 03:47:46;;;;;;;2.10;1.65;;;8.00;76.80;;;;;;5132167;27;20034;-44
2020/12/03 03:50:13;;;;;;;2.22;1.70;;;8.00;76.80;;;;;;5144930;27;20031;-44
2020/12/03 03:52:39;;;;;;;2.50;1.63;;;7.90;76.80;;;;;;5127198;27;20059;-45
2020/12/03 03:55:06;;;;;;;4.40;1.58;;;7.90;76.80;;;;;;5141790;27;20015;-45
2020/12/03 03:57:32;;;;;;;2.20;1.60;;;7.90;76.80;;;;;;5106953;28;20034;-45
2020/12/03 03:59:58;;;;;;;2.45;1.70;;;7.90;76.90;;;;;;5125112;28;20024;-45
2020/12/03 04:02:24;;;;;;;2.42;1.67;;;7.90;76.90;;;;;;5125063;28;20028;-46
2020/12/03 04:04:51;;;;;;;2.67;2.03;;;7.90;76.90;;;;;;5106435;28;20053;-44
2020/12/03 04:07:17;;;;;;;2.33;1.70;;;7.90;76.90;;;;;;5131364;27;20024;-45
2020/12/03 04:09:44;;;;;;;1.67;1.10;;;7.90;76.90;;;;;;5144705;27;20255;-45
2020/12/03 04:12:10;;;;;;;1.60;1.50;;;7.90;76.90;;;;;;5126973;27;20019;-45
2020/12/03 04:14:36;;;;;;;3.22;1.70;;;7.80;76.90;;;;;;5144952;27;20274;-44
2020/12/03 04:17:03;;;;;;;3.42;1.65;;;7.80;77.60;;;;;;5145190;27;20035;-45
2020/12/03 04:19:29;;;;;;;2.50;2.10;;;7.80;76.90;;;;;;5138083;27;20051;-44
2020/12/03 04:21:55;;;;;;;2.72;1.60;;;7.80;76.90;;;;;;5124611;28;20036;-44
2020/12/03 04:24:21;;;;;;;4.20;1.98;;;7.80;77.00;;;;;;5124672;28;20110;-44
2020/12/03 04:26:47;;;;;;;2.15;1.83;;;7.80;77.00;;;;;;5128262;27;20019;-45
2020/12/03 04:29:16;;;;;;;1.98;1.63;;;7.80;77.00;;;;;;5145024;27;20651;-45
2020/12/03 04:31:46;;;;;;;3.30;1.90;;;7.70;76.90;;;;;;5116229;28;20119;-45
2020/12/03 04:34:12;;;;;;;2.08;1.58;;;7.70;76.90;;;;;;5106009;28;20027;-45
2020/12/03 04:36:39;;;;;;;3.05;1.90;;;7.70;76.90;;;;;;5125034;27;20081;-45
2020/12/03 04:39:05;;;;;;;2.80;1.85;;;7.70;76.90;;;;;;5144821;27;20031;-45
2020/12/03 04:41:32;;;;;;;2.78;2.10;;;7.70;76.90;;;;;;5144969;27;20038;-45
2020/12/03 04:44:05;;;;;;;3.13;1.92;;;7.70;77.00;;;;;;5126811;27;20020;-45
2020/12/03 04:46:32;;;;;;;2.45;1.80;;;7.70;76.90;;;;;;5105676;28;20062;-45
2020/12/03 04:49:23;;;;;;;;;;;7.70;76.90;;;;;;5106290;28;20043;-45
2020/12/03 04:51:55;;;;;;;2.83;1.88;;;7.70;76.90;;;;;;5123522;28;19947;-45
2020/12/03 04:54:41;;;;;;;3.25;2.08;;;7.60;76.90;;;;;;5123205;28;20047;-45
2020/12/03 04:57:30;;;;;;;1.83;1.60;;;7.70;77.00;;;;;;5107208;28;20036;-45
2020/12/03 05:00:25;;;;;;;3.90;2.00;;;7.60;76.90;;;;;;5105735;28;20396;-45
2020/12/03 05:03:20;;;;;;;2.28;1.70;;;7.60;77.00;;;;;;5085144;28;20035;-44
2020/12/03 05:06:04;;;;;;;3.25;1.92;;;7.60;76.90;;;;;;5104312;28;20024;-46
2020/12/03 05:08:50;;;;;;;2.58;1.70;;;7.60;77.00;;;;;;5101899;28;20028;-45
2020/12/03 05:11:38;;;;;;;2.75;2.00;;;7.60;77.00;;;;;;5103932;28;20040;-45
2020/12/03 05:14:34;;;;;;;4.20;1.98;;;7.60;77.10;;;;;;5081978;28;20039;-45
2020/12/03 05:17:05;;;;;;;2.60;1.77;;;7.60;77.10;;;;;;5047182;28;20053;-45
2020/12/03 05:19:46;;;;;;;2.92;1.92;;;7.50;77.00;;;;;;5051054;28;20022;-44
2020/12/03 05:22:16;;;;;;;3.47;2.30;;;7.50;77.10;;;;;;5043388;28;20064;-45
2020/12/03 05:24:42;;;;;;;2.95;2.30;;;7.50;77.00;;;;;;5060338;28;20031;-45
2020/12/03 05:27:21;;;;;;;3.90;2.10;;;7.50;77.00;;;;;;5066726;28;20044;-47
2020/12/03 05:29:47;;;;;;;3.22;1.95;;;7.50;77.10;;;;;;5059941;28;20045;-45
2020/12/03 05:32:14;;;;;;;3.20;2.30;;;7.50;77.10;;;;;;5076481;28;20059;-45
2020/12/03 05:34:40;;;;;;;3.30;2.50;;;7.50;77.10;;;;;;5080212;28;20525;-44
2020/12/03 05:37:13;;;;;;;3.78;2.17;;;7.40;77.10;;;;;;5062961;28;20040;-45
2020/12/03 05:39:50;;;;;;;2.53;2.20;;;7.50;77.20;;;;;;5080209;28;20029;-45
2020/12/03 05:42:41;;;;;;;2.83;2.40;;;7.40;77.10;;;;;;5080215;28;20036;-45
2020/12/03 05:45:12;;;;;;;3.90;2.17;;;7.40;77.10;;;;;;5065876;28;20028;-45
2020/12/03 05:47:41;;;;;;;4.03;2.10;;;7.40;77.00;;;;;;5079822;28;20039;-45
2020/12/03 05:50:16;;;;;;;2.72;2.10;;;7.40;77.80;;;;;;5077327;28;20029;-45
2020/12/03 05:53:03;;;;;;;4.18;2.00;;;7.40;77.10;;;;;;5071014;28;20041;-45
2020/12/03 05:55:30;;;;;;;3.08;2.10;;;7.40;77.10;;;;;;5079082;28;20091;-45
2020/12/03 05:58:10;;;;;;;2.45;2.15;;;7.40;77.20;;;;;;5084547;28;20118;-45
2020/12/03 06:00:38;;;;;;;2.10;1.67;;;7.30;77.10;;;;;;5086909;28;20028;-45
2020/12/03 06:03:18;;;;;;;3.28;2.25;;;7.40;78.00;;;;;;5102765;28;20028;-46
2020/12/03 06:06:08;;;;;;;3.72;2.15;;;7.30;77.20;;;;;;5086007;28;20126;-45
2020/12/03 06:08:54;;;;;;;3.78;2.08;;;7.30;77.20;;;;;;5087333;28;20067;-44
2020/12/03 06:11:42;;;;;;;2.63;2.05;;;7.30;77.20;;;;;;5086510;28;20100;-45
2020/12/03 06:14:36;;;;;;;2.85;1.90;;;7.30;77.30;;;;;;5070996;28;20116;-44
2020/12/03 06:17:20;;;;;;;3.30;2.30;;;7.30;77.30;;;;;;5068231;28;20048;-45
2020/12/03 06:20:24;;;;;;;3.35;2.10;;;7.30;77.30;;;;;;5077699;28;20020;-45
2020/12/03 06:23:26;;;;;;;2.78;2.05;;;7.30;77.30;;;;;;5106338;28;20028;-46
2020/12/03 06:26:11;;;;;;;3.22;1.80;;;7.20;77.30;;;;;;5075193;28;20040;-45
2020/12/03 06:29:17;;;;;;;3.05;1.92;;;7.20;77.30;;;;;;5106522;28;20071;-44
2020/12/03 06:32:20;;;;;;;2.83;2.00;;;7.20;77.30;;;;;;5092948;28;20057;-45
2020/12/03 06:34:59;;;;;;;3.60;2.15;;;7.20;77.30;;;;;;5088310;28;20020;-45
2020/12/03 06:37:30;;;;;;;3.13;2.00;;;7.20;77.30;;;;;;5087996;28;20048;-45
2020/12/03 06:40:04;;;;;;;2.78;2.10;;;7.20;77.30;;;;;;5106383;28;20035;-45
2020/12/03 06:42:35;;;;;;;3.65;2.22;;;7.10;77.30;;;;;;5102510;28;20032;-45
2020/12/03 06:45:33;;;;;;;3.45;2.33;;;7.10;77.30;;;;;;5088041;28;20028;-44
2020/12/03 06:48:37;;;;;;;3.15;1.92;;;7.10;77.30;;;;;;5087592;28;20084;-45
2020/12/03 06:51:27;;;;;;;3.17;2.10;;;7.10;77.30;;;;;;5106208;28;20024;-44
2020/12/03 06:54:31;;;;;;;3.88;2.20;;;7.10;77.40;;;;;;5074347;28;20036;-44
2020/12/03 06:57:11;;;;;;;2.92;1.90;;;7.10;77.40;;;;;;5105717;28;20036;-45
2020/12/03 06:59:44;;;;;;;3.17;2.22;;;7.10;77.40;;;;;;5105837;28;20027;-45
2020/12/03 07:02:38;;;;;;;3.47;1.95;;;7.00;77.40;;;;;;5087900;28;20084;-44
2020/12/03 07:05:13;;;;;;;3.38;2.17;;;7.10;77.40;;;;;;5106070;28;20024;-45
2020/12/03 07:08:01;;;;;;;2.97;2.15;;;7.00;77.40;;;;;;5102430;28;20024;-48
2020/12/03 07:10:52;;;;;;;3.35;2.22;;;7.00;77.30;;;;;;5105829;28;20572;-48
2020/12/03 07:13:55;;;;;;;4.55;2.35;;;7.00;77.40;;;;;;5105748;28;20025;-45
2020/12/03 07:16:27;;;;;;;3.05;2.10;;;7.00;77.40;;;;;;5104619;28;20082;-47
2020/12/03 07:19:22;;;;;;;3.92;2.00;;;7.00;77.50;;;;;;5105179;28;20021;-44
2020/12/03 07:21:59;;;;;;;2.67;2.03;;;7.00;77.40;;;;;;5087219;28;20085;-45
2020/12/03 07:24:28;;;;;;;3.30;2.38;;;6.90;77.40;;;;;;5087679;28;20112;-45
2020/12/03 07:27:07;;;;;;;5.57;2.40;;;6.90;77.40;;;;;;5087409;28;20077;-46
2020/12/03 07:29:54;;;;;;;2.80;2.20;;;6.90;77.40;;;;;;5104324;28;20024;-47
2020/12/03 07:32:25;;;;;;;4.05;2.10;;;6.90;77.50;;;;;;5088622;28;20039;-47
2020/12/03 07:35:22;;;;;;;3.90;2.30;;;6.90;77.40;;;;;;5105175;28;20065;-47
2020/12/03 07:38:18;;;;;;;3.10;2.30;;;6.90;77.50;;;;;;5081023;28;20047;-46
2020/12/03 07:40:44;;;;;;;3.10;2.42;;;6.90;77.50;;;;;;5086068;28;20024;-46
2020/12/03 07:43:31;;;;;;;3.63;2.65;;;6.90;77.50;;;;;;5087098;28;20020;-46
2020/12/03 07:45:57;;;;;;;3.00;1.95;;;6.90;77.50;;;;;;5105106;28;20016;-46
2020/12/03 07:48:33;;;;;;;3.22;2.60;;;6.80;77.50;;;;;;5070129;28;20039;-46
2020/12/03 07:51:02;;;;;;;2.40;2.15;;;6.80;77.50;;;;;;5105060;28;20024;-46
2020/12/03 07:53:29;;;;;;;3.25;2.47;;;6.80;77.60;;;;;;5104651;28;20024;-47
2020/12/03 07:55:55;;;;;;;2.83;2.47;;;6.80;77.60;;;;;;5086850;28;20018;-46
2020/12/03 07:58:39;;;;;;;4.18;2.40;;;6.80;77.60;;;;;;5104351;28;20028;-48
2020/12/03 08:01:06;;;;;;;3.22;2.00;;;6.80;77.60;;;;;;5086679;28;20049;-46
2020/12/03 08:03:46;;;;;;;4.22;2.92;;;6.80;77.60;;;;;;5104786;28;20551;-47
2020/12/03 08:06:31;;;;;;;3.13;2.30;;;6.70;77.60;;;;;;5099914;28;20036;-47
2020/12/03 08:09:00;;;;;;;4.82;2.20;;;6.70;77.60;;;;;;5066475;28;20046;-46
2020/12/03 08:12:00;;;;;;;3.75;2.20;;;6.70;77.70;;;;;;5084642;28;20116;-46
2020/12/03 08:14:29;;;;;;;3.55;2.63;;;6.70;77.70;;;;;;5084126;28;20069;-46
2020/12/03 08:16:56;;;;;;;2.92;2.10;;;6.70;77.60;;;;;;5084259;28;20032;-46
2020/12/03 08:19:34;;;;;;;3.00;2.22;;;6.70;77.70;;;;;;5084041;28;20024;-46
2020/12/03 08:22:00;;;;;;;4.60;2.80;;;6.70;77.70;;;;;;5084214;28;20070;-46
2020/12/03 08:24:33;;;;;;;3.27;2.50;;;6.70;77.60;;;;;;5084193;28;20054;-47
2020/12/03 08:27:03;;;;;;;3.53;2.63;;;6.70;77.60;;;;;;5089692;28;20059;-44
2020/12/03 08:29:39;;;;;;;4.10;2.47;;;6.70;77.70;;;;;;5103742;28;20081;-46
2020/12/03 08:32:05;;;;;;;3.35;2.58;;;6.70;77.70;;;;;;5104288;28;20032;-47
2020/12/03 08:34:35;;;;;;;3.75;2.75;;;6.60;77.60;;;;;;5085911;28;20032;-46
2020/12/03 08:37:08;;;;;;;3.55;2.50;;;6.60;77.60;;;;;;5068250;28;20032;-46
2020/12/03 08:39:36;;;;;;;5.88;2.95;;;6.60;77.70;;;;;;5103842;28;20024;-47
2020/12/03 08:42:01;;;;;;;;;;;6.60;77.60;;;;;;5104528;28;20107;-46
2020/12/03 08:44:28;;;;;;;4.10;2.58;;;6.60;77.60;;;;;;5104076;28;19915;-46
2020/12/03 08:46:55;;;;;;;3.50;2.47;;;6.60;77.70;;;;;;5085989;28;20039;-47
2020/12/03 08:49:24;;;;;;;3.90;2.75;;;6.60;77.70;;;;;;5085672;28;20027;-46
2020/12/03 08:51:51;;;;;;;3.67;2.72;;;6.60;77.70;;;;;;5104035;28;20062;-46
2020/12/03 08:54:26;;;;;;;3.40;2.33;;;6.60;77.80;;;;;;5103953;28;20851;-46
2020/12/03 08:56:56;;;;;;;3.92;2.83;;;6.60;77.80;;;;;;5086075;28;20107;-46
2020/12/03 08:59:27;;;;;;;4.85;2.67;;;6.50;77.70;;;;;;5085575;28;20027;-46
2020/12/03 09:02:01;;;;;;;4.68;2.80;;;6.50;77.70;;;;;;5089381;28;20092;-46
2020/12/03 09:04:27;;;;;;;4.57;2.83;;;6.50;77.70;;;;;;5073735;28;20024;-46
2020/12/03 09:06:53;;;;;;;4.13;2.90;;;6.50;77.80;;;;;;5061830;28;20058;-47
2020/12/03 09:09:20;;;;;;;3.50;2.70;;;6.50;77.80;;;;;;5065273;28;20504;-46
2020/12/03 09:11:46;;;;;;;5.15;2.95;;;6.50;77.90;;;;;;5083565;28;20029;-49
2020/12/03 09:14:13;;;;;;;4.32;2.95;;;6.50;77.80;;;;;;5065419;28;20066;-46
2020/12/03 09:16:40;;;;;;;4.75;2.95;;;6.50;77.80;;;;;;5065204;28;20047;-46
2020/12/03 09:19:06;;;;;;;3.70;2.80;;;6.50;77.90;;;;;;5065278;28;20048;-46
2020/12/03 09:21:32;;;;;;;4.45;3.00;;;6.50;77.80;;;;;;5078428;28;20036;-45
2020/12/03 09:23:59;;;;;;;3.80;2.70;;;6.50;77.90;;;;;;5068713;28;20024;-47
2020/12/03 09:26:33;;;;;;;4.57;2.97;;;6.40;77.80;;;;;;5103547;28;20087;-46
2020/12/03 09:29:01;;;;;;;4.15;2.67;;;6.40;77.90;;;;;;5103212;28;20676;-46
2020/12/03 09:31:28;;;;;;;3.75;2.70;;;6.40;77.90;;;;;;5103315;28;20028;-46
2020/12/03 09:33:54;;;;;;;4.97;2.78;;;6.40;77.90;;;;;;5085099;28;20032;-46
2020/12/03 09:36:20;;;;;;;3.67;2.80;;;6.40;77.90;;;;;;5081709;28;20040;-47
2020/12/03 09:38:48;;;;;;;4.57;3.20;;;6.40;77.90;;;;;;5103265;28;20055;-50
2020/12/03 09:41:15;;;;;;;;;;;6.40;77.90;;;;;;5102731;28;20036;-46
2020/12/03 09:43:44;;;;;;;3.60;2.75;;;6.40;77.90;;;;;;5102670;28;19988;-46
2020/12/03 09:46:14;;;;;;;2.92;2.63;;;6.40;77.90;;;;;;5085375;28;20783;-47
2020/12/03 09:48:40;;;;;;;4.25;3.00;;;6.40;77.90;;;;;;5065388;28;20027;-46
2020/12/03 09:51:06;;;;;;;4.70;3.10;;;6.30;77.90;;;;;;5077200;28;20461;-46
2020/12/03 09:53:34;;;;;;;3.72;2.88;;;6.30;77.90;;;;;;5103118;28;20324;-46
2020/12/03 09:56:01;;;;;;;3.88;2.75;;;6.40;78.00;;;;;;5103025;28;20031;-47
2020/12/03 09:58:27;;;;;;;4.15;2.92;;;6.30;77.90;;;;;;5102750;28;20020;-46
2020/12/03 10:00:53;;;;;;;3.70;3.10;;;6.30;78.00;;;;;;5102622;28;20039;-46
2020/12/03 10:03:30;;;;;;;4.82;2.70;;;6.30;77.90;;;;;;5101885;28;20024;-46
2020/12/03 10:06:38;;;;;;;4.43;2.97;;;6.30;77.90;;;;;;5099689;28;20058;-46
2020/12/03 10:09:57;;;;;;;4.60;2.97;;;6.30;77.90;;;;;;5082692;28;20036;-46
2020/12/03 10:12:46;;;;;;;4.63;2.85;;;6.30;78.00;;;;;;5066042;28;20144;-50
2020/12/03 10:15:28;;;;;;;4.65;2.95;;;6.30;78.00;;;;;;5053804;28;20109;-46
2020/12/03 10:18:08;;;;;;;4.35;3.10;;;6.20;78.00;;;;;;5082757;28;20039;-46
2020/12/03 10:20:36;;;;;;;4.32;3.08;;;6.20;77.90;;;;;;5098460;28;20024;-46
2020/12/03 10:23:15;;;;;;;4.32;2.92;;;6.20;78.00;;;;;;5085009;28;20686;-45
2020/12/03 10:25:41;;;;;;;4.38;3.00;;;6.20;78.00;;;;;;5103076;28;20056;-46
2020/12/03 10:28:18;;;;;;;4.63;3.13;;;6.20;78.00;;;;;;5084849;28;20023;-46
2020/12/03 10:30:44;;;;;;;4.40;3.10;;;6.20;78.00;;;;;;5083863;28;21304;-45
2020/12/03 10:33:14;;;;;;;3.50;2.72;;;6.20;78.00;;;;;;5102610;28;20032;-45
2020/12/03 10:35:45;;;;;;;4.72;3.03;;;6.20;78.00;;;;;;5084839;28;20024;-46
2020/12/03 10:38:22;;;;;;;4.18;2.75;;;6.20;78.10;;;;;;5084486;28;20032;-47
2020/12/03 10:40:55;;;;;;;3.95;3.08;;;6.20;78.10;;;;;;5102288;28;20054;-46
2020/12/03 10:43:29;;;;;;;5.00;3.25;;;6.10;78.00;;;;;;5102898;28;20146;-45
2020/12/03 10:45:58;;;;;;;4.18;3.00;;;6.10;78.10;;;;;;5084844;28;20027;-45
2020/12/03 10:48:32;;;;;;;4.45;3.22;;;6.10;78.10;;;;;;5085051;28;20047;-45
2020/12/03 10:51:02;;;;;;;5.53;3.42;;;6.10;78.10;;;;;;5065001;28;20036;-46
2020/12/03 10:53:31;;;;;;;4.93;3.20;;;6.10;78.10;;;;;;5085969;28;20657;-46
2020/12/03 10:55:58;;;;;;;5.25;3.38;;;6.10;78.10;;;;;;5085977;28;20032;-45
2020/12/03 10:59:02;;;;;;;4.78;3.30;;;6.10;78.10;;;;;;5103450;28;20484;-47
2020/12/03 11:01:29;;;;;;;4.85;3.22;;;6.10;78.10;;;;;;5105025;28;20057;-46
2020/12/03 11:04:07;;;;;;;4.18;3.20;;;6.00;78.10;;;;;;5088105;28;20050;-46
2020/12/03 11:06:33;;;;;;;4.18;3.20;;;6.00;78.10;;;;;;5067336;28;20064;-45
2020/12/03 11:09:00;;;;;;;4.22;2.90;;;6.00;78.20;;;;;;5067621;28;20031;-45
2020/12/03 11:11:39;;;;;;;5.28;3.15;;;6.00;78.10;;;;;;5085508;28;20028;-45
2020/12/03 11:14:13;;;;;;;4.25;2.95;;;6.00;78.20;;;;;;5085328;28;20075;-45
2020/12/03 11:16:44;;;;;;;6.28;3.47;;;6.00;78.20;;;;;;5068138;28;20098;-45
2020/12/03 11:19:20;;;;;;;5.22;3.42;;;6.00;78.20;;;;;;5088923;28;20016;-46
2020/12/03 11:22:11;;;;;;;3.92;3.05;;;6.00;78.20;;;;;;5088718;28;20032;-45
2020/12/03 11:24:48;;;;;;;6.32;3.30;;;6.00;78.20;;;;;;5087468;28;20031;-45
2020/12/03 11:27:21;;;;;;;4.93;3.10;;;6.00;78.20;;;;;;5089099;28;20071;-45
2020/12/03 11:29:47;;;;;;;4.97;3.45;;;6.00;78.20;;;;;;5087512;28;20711;-46
2020/12/03 11:32:26;;;;;;;5.25;3.28;;;6.00;78.30;;;;;;5104580;28;20049;-46
2020/12/03 11:34:52;;;;;;;4.28;3.33;;;5.90;78.20;;;;;;5105497;28;20658;-45
2020/12/03 11:37:25;;;;;;;4.90;3.40;;;5.90;78.20;;;;;;5105278;28;20396;-46
2020/12/03 11:40:04;;;;;;;4.93;3.40;;;5.90;78.20;;;;;;5087019;28;20024;-45
2020/12/03 11:42:51;;;;;;;;;;;5.90;78.20;;;;;;5093114;28;20032;-47
2020/12/03 11:50:37;;;;;;;5.38;3.30;;;5.90;78.30;;;;;;5105194;28;20110;-45
2020/12/03 11:53:07;;;;;;;6.00;3.33;;;5.90;78.30;;;;;;5104580;28;20032;-45
2020/12/03 11:55:39;;;;;;;3.83;3.10;;;5.90;78.30;;;;;;5104956;28;20016;-45
2020/12/03 11:58:09;;;;;;;4.07;3.05;;;5.80;78.30;;;;;;5086386;28;20061;-46
2020/12/03 12:00:35;;;;;;;6.72;3.55;;;5.90;78.30;;;;;;5104847;28;20024;-46
2020/12/03 12:03:07;;;;;;;3.38;2.95;;;5.80;78.30;;;;;;5104203;28;20028;-46
2020/12/03 12:11:32;;;;;;;5.43;3.72;;;5.80;78.30;;;;;;5105128;28;20492;-46
2020/12/03 12:13:29;;;;;;;4.30;3.30;;;5.80;78.30;;;;;;5090218;28;20028;-46
2020/12/03 12:15:55;;;;;;;5.30;3.13;;;5.80;78.80;;;;;;5104460;28;20043;-49
2020/12/03 12:18:21;;;;;;;4.50;3.42;;;5.80;78.30;;;;;;5104616;28;20092;-46
2020/12/03 12:20:48;;;;;;;3.97;3.22;;;5.80;78.30;;;;;;5104630;28;20095;-46
2020/12/03 12:23:14;;;;;;;5.60;3.53;;;5.80;78.30;;;;;;5103991;28;20046;-46
2020/12/03 12:25:41;;;;;;;3.53;3.22;;;5.80;78.30;;;;;;5104692;28;20028;-46
2020/12/03 12:28:07;;;;;;;5.18;3.70;;;5.80;78.40;;;;;;5104462;28;20057;-46
2020/12/03 12:30:33;;;;;;;4.88;3.20;;;5.70;78.40;;;;;;5104171;28;20035;-46
2020/12/03 12:33:00;;;;;;;4.87;3.60;;;5.70;78.40;;;;;;5104162;28;20032;-46
2020/12/03 12:35:26;;;;;;;4.53;3.45;;;5.70;78.40;;;;;;5104393;28;20027;-45
2020/12/03 12:37:53;;;;;;;5.80;3.58;;;5.70;78.40;;;;;;5100431;28;20067;-46
2020/12/03 12:40:19;;;;;;;5.93;3.38;;;5.70;78.40;;;;;;5104044;28;20040;-46
2020/12/03 12:42:45;;;;;;;4.63;3.30;;;5.70;78.40;;;;;;5103797;28;20028;-46
2020/12/03 12:45:11;;;;;;;6.13;3.92;;;5.70;78.40;;;;;;5104132;28;20031;-46
2020/12/03 12:47:37;;;;;;;4.90;3.70;;;5.70;78.40;;;;;;5104287;28;20039;-45
2020/12/03 12:50:04;;;;;;;2.83;2.53;;;5.70;78.40;;;;;;5104050;28;20028;-46
2020/12/03 12:52:30;;;;;;;3.15;2.85;;;5.70;78.40;;;;;;5085387;28;20030;-46
2020/12/03 12:54:56;;;;;;;5.20;3.67;;;5.70;78.40;;;;;;5104020;28;20028;-46
2020/12/03 12:57:23;;;;;;;4.65;3.35;;;5.70;78.40;;;;;;5103945;28;20052;-46
2020/12/03 12:59:49;;;;;;;4.60;3.40;;;5.60;78.40;;;;;;5104073;28;20044;-45
2020/12/03 13:02:15;;;;;;;5.97;3.70;;;5.70;78.50;;;;;;5103451;28;20023;-46
2020/12/03 13:04:41;;;;;;;6.18;3.45;;;5.60;78.40;;;;;;5103755;28;20047;-46
2020/12/03 13:07:08;;;;;;;4.72;3.55;;;5.60;78.40;;;;;;5099924;28;20032;-46
2020/12/03 13:09:35;;;;;;;5.22;3.45;;;5.60;78.40;;;;;;5103308;28;20024;-46
2020/12/03 13:12:01;;;;;;;5.45;3.60;;;5.60;78.40;;;;;;5103806;28;20039;-46
2020/12/03 13:14:28;;;;;;;5.93;3.55;;;5.60;78.50;;;;;;5108787;28;20127;-46
2020/12/03 13:16:55;;;;;;;5.00;3.50;;;5.60;78.40;;;;;;5123877;28;20064;-44
2020/12/03 13:19:21;;;;;;;5.63;3.70;;;5.60;78.50;;;;;;5130008;27;20117;-47
2020/12/03 13:21:47;;;;;;;4.88;3.40;;;5.60;78.40;;;;;;5144484;27;20050;-46
2020/12/03 13:24:14;;;;;;;4.45;3.40;;;5.60;78.50;;;;;;5144279;27;20091;-46
2020/12/03 13:26:40;;;;;;;4.63;3.45;;;5.60;78.50;;;;;;5141683;27;20027;-46
2020/12/03 13:29:06;;;;;;;5.93;3.72;;;5.60;78.50;;;;;;5123697;28;20038;-46
2020/12/03 13:31:32;;;;;;;5.45;3.75;;;5.50;78.40;;;;;;5123677;28;20032;-46
2020/12/03 13:33:59;;;;;;;5.60;3.97;;;5.50;78.40;;;;;;5123395;28;20031;-46